Arkansas International Airport Blytheville US
ICAO: KBYH
IATA: BYH
Category: Medium
Scheduled Services: No

Elevation: 254 ft
TransAlt. 18000 ft.

Airport Communications:
MEMPHIS CNTR:134.65
CTAF/UNICOM:122.7

KBYH Zoom In..

If you have problems with the map follow the link
https://www.worldairports.se/pages/airport.php?
ICAO=KBYH

Runways:

(A) RW 18 length 11602 ft width 150 ft
ILS 110.30 / hdg 179

(B) RW 36 length 11602 ft width 150 ft
---- / hdg 359

Location; KBYH
Day. 16 / Time. 21.58 Zulu
* Altimeter: 30.12
* Temperature: 14° c. 57.2°f.
* Wind from: 180° Speed 05 kn.
Dewpoint: 04° c.
Visibility: 10 Statute Miles.
Clouds: Clear (manual report).

KBYH 162158Z 18005KT 10SM SKC 14/04 A3012 RMK LAST


Wind From 180°
Speed 05 kn.

 
 
jpsmedia.com for Web Design worldairports.se 2018   terms of use